Portada
METAR-TAF:

METAR-TAF

Aeropuertos :

Aeropuerto de Uagadugú

Uagadugú, Burkina Faso

latitud: 12-21N, longitud: 001-31W, altitud: 316 m

Observación

El informe se hizo hace 59 minutos, a las 07:00 UTC
Viento 4 kt del sur
Temperatura 26°C
Humedad 70%
Presión 1012 hPa
Visibilidad: 6000 m

METAR: DFFD 180700Z 18004KT 6000 NSC 26/20 Q1012 TEMPO 4000 HZ

Hora: 07:59 (07:59 UTC)

Pronóstico

El informe se hizo hace 2 horas y 59 minutos, a las 05:00 UTC
Pronóstico válido del 18 a las 06 UTC al 19 a las 12 UTC
Viento 8 kt del sur
Visibilidad 10 km o más
sin nubes por debajo de 1500 m y sin presencia de cumulonimbus.
Temporalmente
del 18 a las 06 UTC al 18 a las 10 UTC
Visibilidad: 4000 m
calima
Temporalmente
del 19 a las 06 UTC al 19 a las 10 UTC
Visibilidad: 2500 m
calima

TAF: DFFD 180500Z 1806/1912 18008KT CAVOK TEMPO 1806/1810 4000 HZ TEMPO 1906/1910 2500 HZ

Observaciones y pronósticos meteorológicos de más de 4000 aeropuertos (mensajes METAR y TAF).

Los puntos amarillos y rojos representan las estaciones disponibles.

Ponga el ratón en el punto deseado para ver el nombre de la estación.

Haga clic para ver las observaciones y los pronósticos meteorológicos.

Para cambiar el mapa : haga clic en los botones verdes con una cruz de color negro para hacer un zoom, en el botón verde con un guión para alejar o en las flechas verdes para mapas adyacentes.


METAR-TAF: